Time;durP1;ratioP1;P1;durP2;ratioP2;P2;SDS_P1;SDS_P2;PMS_P1;PMS_P2;Temp;Humidity;BMP_temperature;BMP_pressure;BME280_temperature;BME280_humidity;BME280_pressure;Samples;Min_cycle;Max_cycle;Signal;HPM_P1;HPM_P2
2022/08/05 04:56:39;;;;;;;1999.90;999.90;;;;;;;27.72;84.53;98230.06;5027988;23;20056;-63
2022/08/05 04:59:07;;;;;;;1999.90;999.90;;;;;;;28.28;81.51;98227.38;4935343;29;20067;-63
2022/08/05 05:01:34;;;;;;;1999.90;999.90;;;;;;;28.40;80.59;98232.63;4935150;29;20063;-64
2022/08/05 05:04:02;;;;;;;1999.90;999.90;;;;;;;28.69;79.32;98231.38;4922484;29;20430;-63
2022/08/05 05:06:30;;;;;;;1999.90;999.90;;;;;;;28.91;76.55;98236.34;4915505;29;20043;-64
2022/08/05 05:08:57;;;;;;;1999.90;999.90;;;;;;;28.76;80.08;98232.97;4926054;29;20067;-63
2022/08/05 05:11:25;;;;;;;1999.90;999.90;;;;;;;29.27;75.92;98232.44;4916554;29;20068;-64
2022/08/05 05:13:53;;;;;;;1999.90;999.90;;;;;;;29.75;73.83;98229.16;4926670;29;20052;-64
2022/08/05 05:16:20;;;;;;;1999.90;999.90;;;;;;;30.06;72.37;98228.78;4925839;29;20051;-64
2022/08/05 05:18:48;;;;;;;1999.90;999.90;;;;;;;30.47;70.19;98229.59;4931865;29;20102;-64
2022/08/05 05:21:28;;;;;;;1999.90;999.90;;;;;;;31.36;62.58;98234.66;4933357;29;20048;-62
2022/08/05 05:23:56;;;;;;;1999.90;999.90;;;;;;;31.23;65.04;98243.19;4918513;29;20056;-63
2022/08/05 05:26:24;;;;;;;1999.90;999.90;;;;;;;31.88;57.04;98236.47;4924116;29;20052;-63
2022/08/05 05:28:51;;;;;;;1999.90;999.90;;;;;;;32.42;53.52;98242.88;4928811;29;20092;-64
2022/08/05 05:31:19;;;;;;;1999.90;999.90;;;;;;;32.27;56.37;98245.47;4924086;29;20388;-64
2022/08/05 05:33:46;;;;;;;1999.90;999.90;;;;;;;32.46;57.21;98249.13;4932525;29;20153;-64
2022/08/05 05:36:14;;;;;;;1999.90;999.90;;;;;;;32.86;56.89;98244.34;4933845;29;20469;-64
2022/08/05 05:38:41;;;;;;;1999.90;999.90;;;;;;;33.34;53.45;98255.66;4934126;29;20067;-64
2022/08/05 05:41:08;;;;;;;1999.90;999.90;;;;;;;33.25;52.83;98249.50;4916941;29;20056;-64
2022/08/05 05:43:36;;;;;;;1999.90;999.90;;;;;;;33.77;51.79;98255.41;4922771;29;20059;-64
2022/08/05 05:46:03;;;;;;;1999.90;999.90;;;;;;;33.71;50.29;98257.63;4923059;29;20075;-65
2022/08/05 05:48:31;;;;;;;1999.90;999.90;;;;;;;33.89;49.69;98262.56;4934239;29;20406;-65
2022/08/05 05:50:59;;;;;;;1999.90;999.90;;;;;;;33.53;47.88;98265.03;4933035;29;20624;-63
2022/08/05 05:53:27;;;;;;;1999.90;999.90;;;;;;;32.71;52.55;98256.44;4933121;29;20418;-58
2022/08/05 05:55:55;;;;;;;1999.90;999.90;;;;;;;32.11;55.01;98252.28;4930840;29;20364;-59
2022/08/05 05:58:22;;;;;;;1999.90;999.90;;;;;;;31.60;57.02;98254.13;4907060;29;20063;-59
2022/08/05 06:00:50;;;;;;;1999.90;999.90;;;;;;;31.40;58.79;98252.47;4905197;29;20055;-59
2022/08/05 06:03:17;;;;;;;1999.90;999.90;;;;;;;31.41;61.30;98259.03;4923036;29;20542;-59
2022/08/05 06:05:45;;;;;;;1999.90;999.90;;;;;;;31.12;59.37;98258.53;4924593;29;20418;-59
2022/08/05 06:08:12;;;;;;;1999.90;999.90;;;;;;;30.63;63.17;98258.91;4927724;29;20055;-58
2022/08/05 06:10:40;;;;;;;1999.90;999.90;;;;;;;30.50;63.88;98254.53;4924089;29;20503;-59
2022/08/05 06:13:07;;;;;;;1999.90;999.90;;;;;;;30.47;64.33;98261.34;4923647;29;20056;-58
2022/08/05 06:15:35;;;;;;;1999.90;999.90;;;;;;;30.41;64.49;98257.72;4923240;29;20046;-59
2022/08/05 06:18:02;;;;;;;1999.90;999.90;;;;;;;30.31;65.89;98258.53;4920892;29;20060;-59
2022/08/05 06:20:30;;;;;;;1999.90;999.90;;;;;;;30.19;67.33;98263.59;4925354;29;20074;-59
2022/08/05 06:22:58;;;;;;;1999.90;999.90;;;;;;;30.05;68.23;98258.16;4917793;29;20081;-59
2022/08/05 06:25:25;;;;;;;1999.90;999.90;;;;;;;29.89;68.50;98260.56;4911946;29;20403;-58
2022/08/05 06:27:53;;;;;;;1999.90;999.90;;;;;;;29.84;70.12;98260.59;4921732;29;20052;-59
2022/08/05 06:30:20;;;;;;;1999.90;999.90;;;;;;;29.66;72.68;98264.03;4930541;29;20391;-59
2022/08/05 06:32:48;;;;;;;1999.90;999.90;;;;;;;29.59;73.74;98258.81;4931951;29;20062;-59
2022/08/05 06:35:15;;;;;;;1999.90;999.90;;;;;;;29.47;75.65;98265.91;4915465;29;20059;-59
2022/08/05 06:37:42;;;;;;;1999.90;999.90;;;;;;;29.42;76.06;98258.84;4914423;29;20519;-59
2022/08/05 06:40:11;;;;;;;1999.90;999.90;;;;;;;29.43;77.14;98257.53;4914927;29;20494;-59
2022/08/05 06:42:38;;;;;;;1999.90;999.90;;;;;;;29.42;77.05;98267.50;4923356;29;20055;-58
2022/08/05 06:45:07;;;;;;;1999.90;999.90;;;;;;;29.44;78.13;98264.09;4930886;29;20059;-59
2022/08/05 06:47:35;;;;;;;1999.90;999.90;;;;;;;29.48;78.52;98265.38;4924872;29;20064;-59
2022/08/05 06:50:04;;;;;;;1999.90;999.90;;;;;;;29.48;79.19;98262.50;4914970;29;20067;-58
2022/08/05 06:52:31;;;;;;;1999.90;999.90;;;;;;;29.51;79.17;98266.44;4927471;29;20070;-59
2022/08/05 06:54:59;;;;;;;1999.90;999.90;;;;;;;29.57;78.42;98255.66;4933711;29;20091;-59
2022/08/05 06:57:27;;;;;;;1999.90;999.90;;;;;;;29.55;78.42;98258.28;4919547;29;20056;-58
2022/08/05 06:59:54;;;;;;;1999.90;999.90;;;;;;;29.59;78.11;98261.72;4897364;29;20064;-58
2022/08/05 07:02:24;;;;;;;1999.90;999.90;;;;;;;29.57;79.58;98256.44;4915183;29;20060;-58
2022/08/05 07:04:51;;;;;;;1999.90;999.90;;;;;;;29.68;78.55;98262.19;4924995;29;20065;-59
2022/08/05 07:07:19;;;;;;;1999.90;999.90;;;;;;;29.78;79.67;98263.50;4923948;29;20060;-59
2022/08/05 07:09:46;;;;;;;1999.90;999.90;;;;;;;29.88;80.26;98272.66;4926081;29;20079;-59
2022/08/05 07:16:48;;;;;;;1999.90;999.90;;;;;;;30.02;79.71;98262.88;4937399;29;20059;-59
2022/08/05 07:17:48;;;;;;;1999.90;999.90;;;;;;;30.20;76.76;98264.38;4922890;29;20056;-59
2022/08/05 07:20:15;;;;;;;1999.90;999.90;;;;;;;30.36;74.65;98275.06;4936812;29;20064;-60
2022/08/05 07:22:58;;;;;;;1999.90;999.90;;;;;;;30.46;75.41;98274.22;4936083;29;20090;-59
2022/08/05 07:25:25;;;;;;;1999.90;999.90;;;;;;;30.57;75.43;98273.34;4877607;29;20065;-59
2022/08/05 07:27:54;;;;;;;1999.90;999.90;;;;;;;30.62;75.03;98261.00;4877836;29;20069;-60
2022/08/05 07:30:21;;;;;;;1999.90;999.90;;;;;;;30.72;75.35;98270.09;4884688;29;20584;-59
2022/08/05 07:32:49;;;;;;;1999.90;999.90;;;;;;;30.80;72.99;98271.09;4875695;29;20064;-60
2022/08/05 07:35:17;;;;;;;1999.90;999.90;;;;;;;30.78;73.26;98271.66;4875933;29;20048;-60
2022/08/05 07:37:44;;;;;;;1999.90;999.90;;;;;;;30.77;72.00;98275.06;4885929;29;20053;-59
2022/08/05 07:40:12;;;;;;;1999.90;999.90;;;;;;;30.79;71.43;98273.22;4886589;29;20067;-60
2022/08/05 07:42:39;;;;;;;1999.90;999.90;;;;;;;30.92;72.15;98266.84;4877194;29;20056;-60
2022/08/05 07:45:07;;;;;;;1999.90;999.90;;;;;;;31.00;75.75;98270.72;4877771;29;20420;-60
2022/08/05 07:47:35;;;;;;;1999.90;999.90;;;;;;;31.09;72.67;98267.50;4877465;29;20544;-60
2022/08/05 07:50:02;;;;;;;1999.90;999.90;;;;;;;31.05;71.11;98264.13;4877417;29;20064;-60
2022/08/05 07:52:30;;;;;;;1999.90;999.90;;;;;;;31.12;71.89;98266.41;4877842;29;20057;-60
2022/08/05 07:54:57;;;;;;;1999.90;999.90;;;;;;;31.18;71.92;98262.16;4877050;29;20449;-60
2022/08/05 07:57:25;;;;;;;1999.90;999.90;;;;;;;31.19;71.87;98266.63;4910039;29;20063;-60
2022/08/05 07:59:52;;;;;;;1999.90;999.90;;;;;;;31.19;71.45;98266.63;4917133;29;20064;-60
2022/08/05 08:02:28;;;;;;;1999.90;999.90;;;;;;;31.18;72.01;98267.13;4917111;29;20506;-60
2022/08/05 08:04:56;;;;;;;1999.90;999.90;;;;;;;31.29;73.12;98269.16;4917587;29;20040;-60
2022/08/05 08:07:23;;;;;;;1999.90;999.90;;;;;;;31.41;75.53;98268.50;4917714;29;20071;-60
2022/08/05 08:09:51;;;;;;;1999.90;999.90;;;;;;;31.47;72.04;98263.47;4916385;29;20075;-60
2022/08/05 08:12:20;;;;;;;1999.90;999.90;;;;;;;31.53;71.15;98275.78;4916570;29;20435;-60
2022/08/05 08:14:47;;;;;;;1999.90;999.90;;;;;;;31.54;70.57;98277.34;4916807;29;20056;-60
2022/08/05 08:17:15;;;;;;;1999.90;999.90;;;;;;;31.60;70.59;98271.50;4916968;29;20411;-60
2022/08/05 08:19:44;;;;;;;1999.90;999.90;;;;;;;31.72;69.12;98267.16;4916570;29;20048;-59
2022/08/05 08:22:11;;;;;;;1999.90;999.90;;;;;;;31.69;71.89;98269.00;4916485;29;20060;-60
2022/08/05 08:24:39;;;;;;;1999.90;999.90;;;;;;;31.73;75.39;98269.50;4916160;29;20052;-60
2022/08/05 08:27:07;;;;;;;1999.90;999.90;;;;;;;31.80;73.00;98273.91;4916622;29;20064;-60
2022/08/05 08:29:34;;;;;;;1999.90;999.90;;;;;;;31.64;74.23;98277.78;4916086;29;20507;-60
2022/08/05 08:32:02;;;;;;;1999.90;999.90;;;;;;;31.70;75.36;98269.81;4900200;29;20071;-60
2022/08/05 08:34:30;;;;;;;1999.90;999.90;;;;;;;31.70;76.24;98273.47;4917137;29;20064;-60
2022/08/05 08:36:57;;;;;;;1999.90;999.90;;;;;;;31.58;73.38;98272.03;4916069;29;20052;-60
2022/08/05 08:39:28;;;;;;;1999.90;999.90;;;;;;;31.54;74.37;98273.66;4916050;29;20418;-60
2022/08/05 08:41:56;;;;;;;1999.90;999.90;;;;;;;31.62;73.68;98272.50;4916293;29;20068;-60
2022/08/05 08:44:24;;;;;;;1999.90;999.90;;;;;;;31.61;74.96;98273.06;4916247;29;20059;-61
2022/08/05 08:46:52;;;;;;;1999.90;999.90;;;;;;;31.65;74.89;98271.44;4926545;29;20118;-60
2022/08/05 08:49:22;;;;;;;1999.90;999.90;;;;;;;31.76;73.16;98268.44;4934738;29;20051;-59
2022/08/05 08:52:18;;;;;;;1999.90;999.90;;;;;;;31.82;71.93;98263.34;4918719;29;20048;-59
2022/08/05 08:54:46;;;;;;;1999.90;999.90;;;;;;;31.82;73.81;98260.47;4933921;29;20052;-59
2022/08/05 08:57:14;;;;;;;1999.90;999.90;;;;;;;31.89;77.33;98258.31;4934561;29;20054;-60
2022/08/05 08:59:41;;;;;;;1999.90;999.90;;;;;;;31.94;75.08;98258.22;4934584;29;20055;-59
2022/08/05 09:02:10;;;;;;;1999.90;999.90;;;;;;;32.04;73.76;98256.53;4931929;29;20066;-60
2022/08/05 09:04:37;;;;;;;1999.90;999.90;;;;;;;31.95;70.95;98268.47;4934326;29;20070;-60
2022/08/05 09:07:06;;;;;;;1999.90;999.90;;;;;;;31.86;73.46;98268.84;4935162;29;20059;-60
2022/08/05 09:09:35;;;;;;;1999.90;999.90;;;;;;;31.80;73.31;98279.69;4934315;29;20537;-60
2022/08/05 09:12:04;;;;;;;1999.90;999.90;;;;;;;31.99;75.17;98273.97;4934122;29;20059;-61
2022/08/05 09:14:38;;;;;;;1999.90;999.90;;;;;;;31.95;71.69;98267.69;4935241;29;20064;-60
2022/08/05 09:17:09;;;;;;;1999.90;999.90;;;;;;;31.93;72.41;98264.56;4935280;29;20360;-59
2022/08/05 09:19:36;;;;;;;1999.90;999.90;;;;;;;31.88;72.83;98269.09;4934482;29;20059;-60
2022/08/05 09:22:04;;;;;;;1999.90;999.90;;;;;;;31.98;73.05;98272.41;4934760;29;20258;-60
2022/08/05 09:24:32;;;;;;;1999.90;999.90;;;;;;;32.04;73.33;98270.22;4934118;29;20071;-60
2022/08/05 09:26:59;;;;;;;1999.90;999.90;;;;;;;32.13;72.93;98261.94;4935107;29;20132;-60
2022/08/05 09:29:38;;;;;;;1999.90;999.90;;;;;;;32.16;74.07;98266.63;4933960;29;20060;-60
2022/08/05 09:32:07;;;;;;;1999.90;999.90;;;;;;;32.25;69.19;98262.59;4935191;29;20055;-59
2022/08/05 09:34:48;;;;;;;1999.90;999.90;;;;;;;32.09;75.36;98260.69;4934524;29;20066;-60
2022/08/05 09:37:17;;;;;;;1999.90;999.90;;;;;;;32.19;73.26;98264.75;4933849;29;20059;-60
2022/08/05 09:39:45;;;;;;;1999.90;999.90;;;;;;;32.10;75.78;98262.25;4934798;29;20056;-60
2022/08/05 09:42:15;;;;;;;1999.90;999.90;;;;;;;32.18;74.19;98263.22;4933740;29;20055;-60
2022/08/05 09:44:44;;;;;;;1999.90;999.90;;;;;;;32.16;78.55;98255.06;4934723;29;20048;-60
2022/08/05 09:47:14;;;;;;;1999.90;999.90;;;;;;;32.17;72.80;98259.53;4934684;29;20067;-60
2022/08/05 09:49:46;;;;;;;1999.90;999.90;;;;;;;32.22;71.74;98266.56;4934201;29;20075;-59
2022/08/05 09:52:24;;;;;;;1999.90;999.90;;;;;;;32.26;69.71;98261.25;4933527;29;20059;-59
2022/08/05 09:55:03;;;;;;;1999.90;999.90;;;;;;;32.27;74.06;98254.16;4933177;29;20063;-60
2022/08/05 09:57:38;;;;;;;1999.90;999.90;;;;;;;32.32;71.30;98256.19;4933459;29;20129;-60
2022/08/05 10:00:09;;;;;;;1999.90;999.90;;;;;;;32.33;72.10;98254.84;4933543;29;20422;-60
2022/08/05 10:02:40;;;;;;;1999.90;999.90;;;;;;;32.34;72.35;98244.84;4933382;29;20079;-59
2022/08/05 10:05:13;;;;;;;1999.90;999.90;;;;;;;32.44;69.44;98243.13;4934596;29;20074;-60
2022/08/05 10:07:46;;;;;;;;;;;;;;;32.44;71.27;98240.22;4933905;29;20071;-59
2022/08/05 10:10:15;;;;;;;1999.90;999.90;;;;;;;32.44;67.37;98243.91;4933952;29;19930;-59
2022/08/05 10:12:53;;;;;;;1999.90;999.90;;;;;;;32.37;67.24;98250.31;4933941;29;20418;-60
2022/08/05 10:15:27;;;;;;;1999.90;999.90;;;;;;;32.31;71.46;98240.91;4916739;29;20060;-59
2022/08/05 10:18:21;;;;;;;1999.90;999.90;;;;;;;32.37;69.77;98243.75;4933629;29;20054;-60
2022/08/05 10:20:58;;;;;;;1999.90;999.90;;;;;;;32.44;65.43;98234.44;4933255;29;20407;-60
2022/08/05 10:23:29;;;;;;;1999.90;999.90;;;;;;;32.39;69.07;98235.28;4933153;29;20501;-60
2022/08/05 10:26:00;;;;;;;1999.90;999.90;;;;;;;32.39;73.84;98220.81;4933045;29;20071;-60
2022/08/05 10:28:29;;;;;;;1999.90;999.90;;;;;;;32.20;68.74;98238.19;4933123;29;20068;-60
2022/08/05 10:30:58;;;;;;;1999.90;999.90;;;;;;;32.25;68.49;98228.66;4933417;29;20051;-60
2022/08/05 10:33:29;;;;;;;1999.90;999.90;;;;;;;32.34;69.70;98225.38;4934182;29;20063;-60
2022/08/05 10:35:58;;;;;;;1999.90;999.90;;;;;;;32.36;72.08;98231.38;4929364;29;20048;-60
2022/08/05 10:38:29;;;;;;;1999.90;999.90;;;;;;;32.32;66.53;98227.25;4915135;29;20395;-60
2022/08/05 10:41:15;;;;;;;1999.90;999.90;;;;;;;32.26;64.49;98229.41;4914044;29;20071;-60
2022/08/05 10:43:47;;;;;;;1999.90;999.90;;;;;;;32.30;68.63;98215.44;4917649;29;20079;-60
2022/08/05 10:46:17;;;;;;;1999.90;999.90;;;;;;;32.35;69.34;98226.16;4918504;29;20149;-60
2022/08/05 10:48:46;;;;;;;1999.90;999.90;;;;;;;32.46;63.94;98223.06;4920000;29;20051;-60
2022/08/05 10:51:17;;;;;;;1999.90;999.90;;;;;;;32.47;63.88;98210.94;4937087;29;20052;-60
2022/08/05 10:53:50;;;;;;;1999.90;999.90;;;;;;;32.59;69.04;98211.59;4937999;29;20067;-60
2022/08/05 10:56:21;;;;;;;1999.90;999.90;;;;;;;32.61;65.46;98220.50;4937544;29;20055;-59
2022/08/05 10:58:59;;;;;;;1999.90;999.90;;;;;;;32.68;63.19;98216.97;4932001;29;20509;-60
2022/08/05 11:01:27;;;;;;;1999.90;999.90;;;;;;;32.75;62.76;98213.44;4927397;29;20064;-60
2022/08/05 11:04:21;;;;;;;1999.90;999.90;;;;;;;32.79;61.59;98216.78;4908995;29;20079;-60
2022/08/05 11:06:56;;;;;;;1999.90;999.90;;;;;;;32.84;62.60;98210.13;4928166;29;20054;-60
2022/08/05 11:09:26;;;;;;;1999.90;999.90;;;;;;;32.88;60.12;98210.59;4918054;29;20068;-59
2022/08/05 11:11:54;;;;;;;1999.90;999.90;;;;;;;32.93;62.03;98217.63;4918796;29;20052;-59
2022/08/05 11:14:39;;;;;;;1999.90;999.90;;;;;;;33.08;61.02;98215.03;4917621;29;20064;-59
2022/08/05 11:17:32;;;;;;;1999.90;999.90;;;;;;;33.06;60.11;98211.91;4920329;29;20044;-59
2022/08/05 11:20:00;;;;;;;1999.90;999.90;;;;;;;32.97;55.38;98201.47;4916817;29;20051;-59
2022/08/05 11:22:47;;;;;;;1999.90;999.90;;;;;;;33.01;57.06;98207.72;4932621;29;20482;-60
2022/08/05 11:25:43;;;;;;;1999.90;999.90;;;;;;;32.96;56.23;98197.00;4936045;29;20063;-59
2022/08/05 11:28:10;;;;;;;1999.90;999.90;;;;;;;32.99;57.12;98195.91;4934049;29;20051;-59
2022/08/05 11:30:56;;;;;;;1999.90;999.90;;;;;;;32.97;57.10;98198.56;4937187;29;20067;-58
2022/08/05 11:33:29;;;;;;;1999.90;999.90;;;;;;;33.07;55.12;98199.75;4936116;29;20064;-60
2022/08/05 11:36:07;;;;;;;1999.90;999.90;;;;;;;33.06;56.74;98191.63;4936013;29;20479;-60
2022/08/05 11:38:37;;;;;;;1999.90;999.90;;;;;;;33.05;56.59;98190.84;4921913;29;20053;-59
2022/08/05 11:41:05;;;;;;;1999.90;999.90;;;;;;;33.12;55.91;98183.59;4924474;29;20068;-59
2022/08/05 11:43:34;;;;;;;1999.90;999.90;;;;;;;33.20;57.02;98183.72;4917263;29;20060;-59
2022/08/05 11:46:02;;;;;;;1999.90;999.90;;;;;;;33.29;57.00;98186.19;4917856;29;20060;-59
2022/08/05 11:48:30;;;;;;;1999.90;999.90;;;;;;;33.33;54.49;98184.50;4919045;29;20537;-59
2022/08/05 11:50:58;;;;;;;1999.90;999.90;;;;;;;33.42;54.68;98186.19;4916319;29;20059;-59
2022/08/05 11:53:26;;;;;;;1999.90;999.90;;;;;;;33.53;55.02;98178.06;4930869;29;20052;-59
2022/08/05 11:55:56;;;;;;;1999.90;999.90;;;;;;;33.68;50.76;98189.13;4932617;29;20047;-60
2022/08/05 11:58:35;;;;;;;1999.90;999.90;;;;;;;33.71;49.79;98182.22;4933066;29;20074;-60
2022/08/05 12:01:06;;;;;;;1999.90;999.90;;;;;;;33.69;50.14;98179.09;4922496;29;20063;-59
2022/08/05 12:03:45;;;;;;;1999.90;999.90;;;;;;;33.69;49.09;98179.09;4928163;29;20052;-59
2022/08/05 12:06:14;;;;;;;1999.90;999.90;;;;;;;33.65;49.37;98176.50;4927196;29;20052;-59
2022/08/05 12:08:52;;;;;;;1999.90;999.90;;;;;;;33.68;51.76;98172.50;4934295;29;20074;-59
2022/08/05 12:11:22;;;;;;;1999.90;999.90;;;;;;;33.71;50.30;98180.09;4922997;29;20063;-59
2022/08/05 12:14:00;;;;;;;1999.90;999.90;;;;;;;33.78;51.24;98172.81;4928520;29;20079;-59
2022/08/05 12:16:33;;;;;;;1999.90;999.90;;;;;;;33.72;46.84;98175.84;4919824;29;20055;-60
2022/08/05 12:19:00;;;;;;;1999.90;999.90;;;;;;;33.77;51.50;98165.47;4924986;29;20078;-60
2022/08/05 12:21:33;;;;;;;1999.90;999.90;;;;;;;33.78;51.49;98178.63;4921711;29;20070;-59
2022/08/05 12:24:04;;;;;;;1999.90;999.90;;;;;;;33.79;55.98;98165.69;4917180;29;20064;-59
